createdAt,value
2024-01-15T00:01:25.254Z,1.42
2024-01-15T00:03:53.610Z,1.45
2024-01-15T00:06:22.038Z,1.34
2024-01-15T00:08:50.293Z,1.49
2024-01-15T00:11:20.642Z,1.50
2024-01-15T00:13:48.886Z,1.42
2024-01-15T00:16:17.331Z,1.38
2024-01-15T00:18:45.685Z,1.28
2024-01-15T00:21:14.051Z,1.48
2024-01-15T00:23:44.509Z,1.40
2024-01-15T00:26:12.997Z,1.30
2024-01-15T00:28:42.655Z,1.49
2024-01-15T00:31:11.347Z,1.42
2024-01-15T00:33:39.825Z,1.50
2024-01-15T00:36:09.030Z,1.43
2024-01-15T00:38:37.327Z,1.33
2024-01-15T00:41:06.113Z,1.35
2024-01-15T00:43:34.329Z,1.32
2024-01-15T00:46:05.353Z,1.43
2024-01-15T00:48:34.107Z,1.36
2024-01-15T00:51:02.846Z,1.21
2024-01-15T00:53:31.086Z,1.18
2024-01-15T00:55:59.309Z,1.15
2024-01-15T00:58:27.610Z,1.11
2024-01-15T01:00:56.395Z,1.00
2024-01-15T01:03:26.102Z,1.04
2024-01-15T01:05:54.406Z,1.18
2024-01-15T01:08:22.617Z,1.01
2024-01-15T01:10:50.952Z,1.02
2024-01-15T01:13:19.204Z,1.04
2024-01-15T01:15:47.654Z,1.15
2024-01-15T01:18:16.120Z,1.10
2024-01-15T01:20:45.882Z,1.01
2024-01-15T01:23:14.290Z,1.08
2024-01-15T01:25:42.549Z,1.11
2024-01-15T01:28:10.843Z,1.13
2024-01-15T01:30:39.274Z,1.08
2024-01-15T01:33:07.817Z,0.91
2024-01-15T01:35:36.089Z,0.84
2024-01-15T01:38:05.885Z,0.70
2024-01-15T01:40:34.104Z,0.71
2024-01-15T01:43:02.345Z,0.68
2024-01-15T01:45:30.673Z,0.69
2024-01-15T01:47:59.140Z,0.65
2024-01-15T01:50:27.455Z,0.60
2024-01-15T01:52:55.769Z,0.67
2024-01-15T01:55:28.591Z,0.61
2024-01-15T01:57:57.323Z,0.67
2024-01-15T02:00:25.901Z,0.65
2024-01-15T02:02:54.259Z,0.62
2024-01-15T02:05:23.144Z,0.62
2024-01-15T02:07:52.073Z,0.68
2024-01-15T02:10:20.399Z,0.70
2024-01-15T02:12:50.455Z,0.77
2024-01-15T02:15:18.693Z,0.74
2024-01-15T02:18:02.633Z,0.73
2024-01-15T02:20:31.675Z,0.79
2024-01-15T02:23:09.624Z,0.84
2024-01-15T02:25:38.286Z,0.75
2024-01-15T02:28:08.105Z,0.81
2024-01-15T02:30:40.003Z,0.90
2024-01-15T02:33:09.145Z,0.85
2024-01-15T02:35:38.562Z,0.86
2024-01-15T02:38:08.726Z,0.86
2024-01-15T02:40:37.427Z,0.83
2024-01-15T02:43:05.897Z,0.60
2024-01-15T02:45:34.202Z,0.71
2024-01-15T02:48:02.700Z,0.72
2024-01-15T02:50:31.023Z,0.74
2024-01-15T02:52:59.275Z,0.65
2024-01-15T02:55:30.641Z,0.67
2024-01-15T02:57:59.205Z,0.80
2024-01-15T03:00:27.507Z,0.78
2024-01-15T03:02:55.806Z,0.54
2024-01-15T03:05:24.122Z,0.66
2024-01-15T03:07:52.479Z,0.74
2024-01-15T03:10:20.696Z,0.73
2024-01-15T03:12:50.350Z,0.75
2024-01-15T03:15:19.542Z,0.74
2024-01-15T03:17:47.880Z,0.72
2024-01-15T03:20:16.300Z,0.75
2024-01-15T03:22:44.566Z,0.79
2024-01-15T03:25:12.803Z,0.86
2024-01-15T03:27:41.094Z,0.89
2024-01-15T03:30:11.963Z,0.77
2024-01-15T03:32:40.275Z,0.69
2024-01-15T03:35:09.459Z,0.81
2024-01-15T03:37:37.736Z,0.66
2024-01-15T03:40:06.948Z,0.69
2024-01-15T03:42:35.204Z,0.73
2024-01-15T03:45:04.089Z,0.75
2024-01-15T03:47:33.777Z,0.80
2024-01-15T03:50:02.154Z,0.87
2024-01-15T03:52:30.729Z,0.82
2024-01-15T03:54:59.027Z,0.72
2024-01-15T03:57:27.848Z,0.74
2024-01-15T03:59:56.146Z,0.66
2024-01-15T04:02:24.424Z,0.79
2024-01-15T04:04:54.024Z,0.79
2024-01-15T04:07:22.351Z,0.83
2024-01-15T04:09:50.680Z,0.80
2024-01-15T04:12:19.009Z,0.60
2024-01-15T04:14:47.243Z,0.68
2024-01-15T04:17:15.522Z,0.81
2024-01-15T04:19:46.310Z,0.81
2024-01-15T04:22:15.993Z,0.83
2024-01-15T04:24:44.319Z,0.84
2024-01-15T04:27:12.607Z,0.72
2024-01-15T04:29:41.895Z,0.71
2024-01-15T04:32:10.348Z,0.85
2024-01-15T04:34:38.750Z,0.80
2024-01-15T04:37:07.490Z,0.82
2024-01-15T04:39:37.318Z,0.86
2024-01-15T04:42:06.331Z,0.84
2024-01-15T04:44:34.681Z,0.92
2024-01-15T04:47:03.005Z,0.86
2024-01-15T04:49:31.390Z,0.83
2024-01-15T04:51:59.642Z,0.83
2024-01-15T04:54:27.958Z,0.78
2024-01-15T04:56:57.671Z,0.86
2024-01-15T04:59:25.929Z,0.88
2024-01-15T05:01:54.157Z,0.79
2024-01-15T05:04:22.566Z,0.84
2024-01-15T05:06:50.939Z,0.90
2024-01-15T05:09:19.436Z,0.91
2024-01-15T05:11:47.750Z,0.97
2024-01-15T05:14:17.260Z,0.92
2024-01-15T05:16:49.011Z,1.10
2024-01-15T05:19:17.732Z,1.05
2024-01-15T05:21:46.317Z,1.12
2024-01-15T05:24:14.687Z,1.19
2024-01-15T05:26:42.946Z,1.16
2024-01-15T05:29:11.178Z,1.18
2024-01-15T05:31:40.852Z,1.12
2024-01-15T05:34:09.301Z,1.10
2024-01-15T05:36:37.654Z,1.07
2024-01-15T05:39:06.214Z,1.12
2024-01-15T05:41:34.529Z,1.10
2024-01-15T05:44:02.726Z,1.21
2024-01-15T05:46:30.918Z,1.21
2024-01-15T05:49:00.659Z,1.25
2024-01-15T05:51:29.003Z,1.30
2024-01-15T05:53:57.285Z,1.34
2024-01-15T05:56:26.364Z,1.26
2024-01-15T05:58:54.591Z,1.33
2024-01-15T06:01:22.915Z,1.22
2024-01-15T06:03:51.220Z,1.17
2024-01-15T06:06:20.993Z,1.13
2024-01-15T06:08:49.293Z,1.17
2024-01-15T06:11:17.552Z,1.15
2024-01-15T06:13:45.735Z,1.15
2024-01-15T06:16:16.300Z,1.22
2024-01-15T06:18:44.705Z,1.20
2024-01-15T06:21:14.081Z,1.20
2024-01-15T06:23:43.943Z,1.17
2024-01-15T06:26:13.729Z,1.14
2024-01-15T06:28:41.959Z,1.10
2024-01-15T06:31:10.229Z,1.07
2024-01-15T06:33:39.255Z,1.01
2024-01-15T06:36:08.547Z,1.02
2024-01-15T06:38:36.814Z,0.93
2024-01-15T06:41:06.684Z,0.99
2024-01-15T06:43:35.346Z,0.96
2024-01-15T06:46:06.392Z,0.97
2024-01-15T06:48:36.117Z,1.02
2024-01-15T06:51:04.749Z,1.07
2024-01-15T06:53:32.927Z,1.11
2024-01-15T06:56:01.179Z,1.13
2024-01-15T06:58:30.681Z,1.23
2024-01-15T07:00:59.060Z,1.25
2024-01-15T07:03:27.555Z,1.35
2024-01-15T07:05:55.860Z,1.33
2024-01-15T07:08:24.174Z,1.43
2024-01-15T07:10:52.730Z,1.34
2024-01-15T07:13:20.982Z,1.29
2024-01-15T07:15:51.557Z,1.28
2024-01-15T07:18:20.058Z,1.27
2024-01-15T07:20:48.445Z,1.15
2024-01-15T07:23:16.733Z,1.10
2024-01-15T07:25:45.463Z,1.18
2024-01-15T07:28:13.653Z,1.18
2024-01-15T07:30:42.187Z,1.15
2024-01-15T07:33:12.086Z,1.26
2024-01-15T07:35:40.559Z,1.15
2024-01-15T07:38:09.696Z,0.98
2024-01-15T07:40:38.077Z,0.86
2024-01-15T07:43:06.796Z,0.93
2024-01-15T07:45:35.046Z,0.93
2024-01-15T07:48:04.246Z,1.00
2024-01-15T07:50:33.993Z,1.00
2024-01-15T07:53:02.264Z,0.86
2024-01-15T07:55:30.531Z,0.77
2024-01-15T07:58:11.024Z,0.81
2024-01-15T08:00:44.024Z,0.75
2024-01-15T08:03:13.206Z,0.83
2024-01-15T08:05:42.920Z,0.80
2024-01-15T08:08:11.255Z,0.81
2024-01-15T08:10:39.544Z,0.90
2024-01-15T08:13:09.516Z,0.92
2024-01-15T08:15:38.036Z,0.85
2024-01-15T08:18:06.907Z,0.75
2024-01-15T08:20:35.279Z,0.81
2024-01-15T08:23:05.310Z,0.90
2024-01-15T08:25:33.580Z,0.95
2024-01-15T08:28:02.004Z,1.10
2024-01-15T08:30:30.382Z,1.15
2024-01-15T08:33:04.740Z,1.19
2024-01-15T08:35:36.966Z,1.23
2024-01-15T08:38:07.085Z,1.30
2024-01-15T08:40:35.365Z,1.51
2024-01-15T08:43:04.136Z,1.67
2024-01-15T08:45:32.942Z,1.68
2024-01-15T08:48:02.260Z,1.65
2024-01-15T08:50:31.619Z,1.76
2024-01-15T08:52:59.908Z,1.59
2024-01-15T08:55:29.603Z,1.58
2024-01-15T08:57:57.929Z,1.62
2024-01-15T09:00:26.213Z,1.71
2024-01-15T09:02:54.526Z,1.64
2024-01-15T09:05:22.905Z,1.72
2024-01-15T09:07:53.172Z,1.84
2024-01-15T09:10:21.488Z,2.16
2024-01-15T09:12:51.212Z,2.18
2024-01-15T09:15:20.268Z,1.99
2024-01-15T09:17:48.649Z,1.94
2024-01-15T09:20:17.131Z,1.91
2024-01-15T09:22:45.827Z,1.87
2024-01-15T09:25:15.006Z,1.95
2024-01-15T09:27:43.352Z,1.93
2024-01-15T09:30:14.254Z,1.87
2024-01-15T09:32:42.944Z,1.77
2024-01-15T09:35:11.785Z,1.78
2024-01-15T09:37:47.230Z,1.67
2024-01-15T09:40:17.649Z,1.73
2024-01-15T09:42:47.477Z,1.79
2024-01-15T09:45:17.727Z,1.62
2024-01-15T09:47:47.250Z,1.80
2024-01-15T09:50:16.451Z,1.91
2024-01-15T09:52:45.671Z,1.78
2024-01-15T09:55:16.519Z,1.60
2024-01-15T09:57:46.425Z,1.38
2024-01-15T10:00:15.228Z,1.43
2024-01-15T10:02:44.870Z,1.43
2024-01-15T10:05:13.509Z,1.36
2024-01-15T10:07:42.346Z,1.42
2024-01-15T10:10:12.792Z,1.56
2024-01-15T10:12:41.560Z,1.76
2024-01-15T10:15:12.014Z,1.93
2024-01-15T10:17:40.719Z,2.07
2024-01-15T10:20:13.174Z,2.02
2024-01-15T10:22:43.400Z,2.08
2024-01-15T10:25:15.798Z,2.11
2024-01-15T10:27:44.115Z,2.06
2024-01-15T10:30:15.359Z,2.17
2024-01-15T10:32:43.952Z,2.24
2024-01-15T10:35:14.082Z,2.15
2024-01-15T10:37:43.756Z,2.21
2024-01-15T10:40:12.930Z,2.18
2024-01-15T10:42:42.687Z,2.39
2024-01-15T10:45:11.445Z,2.37
2024-01-15T10:47:40.790Z,2.26
2024-01-15T10:50:10.654Z,2.30
2024-01-15T10:52:41.924Z,2.37
2024-01-15T10:55:15.951Z,2.36
2024-01-15T10:57:50.623Z,2.24
2024-01-15T11:00:20.426Z,2.22
2024-01-15T11:02:48.790Z,2.14
2024-01-15T11:05:19.280Z,2.15
2024-01-15T11:07:49.054Z,2.14
2024-01-15T11:10:42.589Z,2.18
2024-01-15T11:13:12.818Z,2.18
2024-01-15T11:16:01.077Z,2.27
2024-01-15T11:18:31.438Z,2.24
2024-01-15T11:21:25.034Z,2.21
2024-01-15T11:23:58.671Z,2.28
2024-01-15T11:26:31.629Z,2.23
2024-01-15T11:29:01.411Z,2.29
2024-01-15T11:31:30.940Z,2.25
2024-01-15T11:34:01.375Z,2.45
2024-01-15T11:37:03.263Z,2.59
2024-01-15T11:39:45.425Z,2.73
2024-01-15T11:42:14.112Z,2.78
2024-01-15T11:44:42.954Z,2.76
2024-01-15T11:47:16.327Z,2.79
2024-01-15T11:50:01.897Z,2.72
2024-01-15T11:52:35.905Z,2.69
2024-01-15T11:55:14.123Z,2.59
2024-01-15T11:57:48.940Z,2.46
2024-01-15T12:00:17.780Z,2.55
2024-01-15T12:02:47.857Z,2.55
2024-01-15T12:05:17.179Z,2.65
2024-01-15T12:07:46.947Z,2.54
2024-01-15T12:10:19.661Z,2.53
2024-01-15T12:12:59.214Z,2.45
2024-01-15T12:15:29.642Z,2.50
2024-01-15T12:17:59.658Z,2.58
2024-01-15T12:20:28.276Z,2.50
2024-01-15T12:23:01.696Z,2.46
2024-01-15T12:25:34.525Z,2.57
2024-01-15T12:28:03.820Z,2.44
2024-01-15T12:30:33.823Z,2.15
2024-01-15T12:33:04.266Z,1.72
2024-01-15T12:35:32.823Z,1.30
2024-01-15T12:38:03.541Z,0.96
2024-01-15T12:40:34.463Z,0.93
2024-01-15T12:43:02.995Z,1.02
2024-01-15T12:45:32.238Z,1.21
2024-01-15T12:48:01.509Z,1.27
2024-01-15T12:50:29.905Z,1.37
2024-01-15T12:53:00.266Z,1.33
2024-01-15T12:55:28.589Z,1.33
2024-01-15T12:57:58.173Z,1.26
2024-01-15T13:00:27.397Z,1.39
2024-01-15T13:02:58.437Z,1.35
2024-01-15T13:05:29.778Z,1.15
2024-01-15T13:07:58.242Z,1.09
2024-01-15T13:10:26.982Z,1.06
2024-01-15T13:12:55.463Z,1.10
2024-01-15T13:15:25.216Z,1.14
2024-01-15T13:17:53.452Z,1.09
2024-01-15T13:20:21.796Z,1.14
2024-01-15T13:22:50.102Z,1.04
2024-01-15T13:25:18.570Z,1.09
2024-01-15T13:27:46.841Z,1.08
2024-01-15T13:30:15.634Z,1.15
2024-01-15T13:32:45.414Z,1.06
2024-01-15T13:35:14.900Z,1.09
2024-01-15T13:37:43.656Z,1.12
2024-01-15T13:40:18.058Z,1.24
2024-01-15T13:42:48.460Z,1.23
2024-01-15T13:45:17.057Z,1.28
2024-01-15T13:47:46.854Z,1.27
2024-01-15T13:50:15.665Z,1.27
2024-01-15T13:52:44.232Z,1.37
2024-01-15T13:55:12.977Z,1.30
2024-01-15T13:57:41.465Z,1.48
2024-01-15T14:00:13.611Z,1.44
2024-01-15T14:02:42.688Z,1.49
2024-01-15T14:05:14.264Z,1.45
2024-01-15T14:07:44.202Z,1.51
2024-01-15T14:10:12.517Z,1.48
2024-01-15T14:12:41.046Z,1.48
2024-01-15T14:15:10.261Z,1.55
2024-01-15T14:17:39.649Z,1.55
2024-01-15T14:20:10.957Z,1.70
2024-01-15T14:22:41.066Z,1.50
2024-01-15T14:25:10.767Z,1.63
2024-01-15T14:27:39.063Z,1.56
2024-01-15T14:30:09.840Z,1.64
2024-01-15T14:32:38.514Z,1.60
2024-01-15T14:35:09.258Z,1.64
2024-01-15T14:37:37.772Z,1.66
2024-01-15T14:40:09.778Z,1.68
2024-01-15T14:42:38.820Z,1.66
2024-01-15T14:45:12.811Z,1.65
2024-01-15T14:47:42.032Z,1.65
2024-01-15T14:50:11.914Z,1.58
2024-01-15T14:52:40.894Z,1.54
2024-01-15T14:55:11.150Z,1.52
2024-01-15T14:57:39.909Z,1.49
2024-01-15T15:00:10.616Z,1.35
2024-01-15T15:02:39.387Z,1.40
2024-01-15T15:05:08.848Z,1.51
2024-01-15T15:07:38.380Z,1.32
2024-01-15T15:10:08.023Z,1.37
2024-01-15T15:12:37.696Z,1.40
2024-01-15T15:15:10.293Z,1.42
2024-01-15T15:17:40.501Z,1.41
2024-01-15T15:20:09.860Z,1.42
2024-01-15T15:22:38.391Z,1.35
2024-01-15T15:25:09.547Z,1.38
2024-01-15T15:27:41.051Z,1.42
2024-01-15T15:30:10.161Z,1.37
2024-01-15T15:32:40.044Z,1.49
2024-01-15T15:35:10.724Z,1.48
2024-01-15T15:37:39.272Z,1.45
2024-01-15T15:40:10.334Z,1.44
2024-01-15T15:42:40.245Z,1.49
2024-01-15T15:45:10.707Z,1.49
2024-01-15T15:47:39.808Z,1.54
2024-01-15T15:50:09.574Z,1.47
2024-01-15T15:52:37.876Z,1.45
2024-01-15T15:55:09.097Z,1.45
2024-01-15T15:57:38.422Z,1.44
2024-01-15T16:00:09.804Z,1.41
2024-01-15T16:02:41.505Z,1.43
2024-01-15T16:05:11.322Z,1.45
2024-01-15T16:07:39.854Z,1.42
2024-01-15T16:10:09.127Z,1.37
2024-01-15T16:12:37.381Z,1.31
2024-01-15T16:15:21.816Z,1.37
2024-01-15T16:23:17.320Z,1.48
2024-01-15T16:23:31.694Z,1.31
2024-01-15T16:24:04.635Z,1.04
2024-01-15T16:26:15.592Z,0.78
2024-01-15T16:28:44.338Z,0.66
2024-01-15T16:31:13.975Z,0.67
2024-01-15T16:33:43.724Z,0.48
2024-01-15T16:36:13.617Z,0.36
2024-01-15T16:38:41.950Z,0.40
2024-01-15T16:41:10.216Z,0.45
2024-01-15T16:43:38.406Z,0.29
2024-01-15T16:46:06.666Z,0.29
2024-01-15T16:48:36.268Z,0.34
2024-01-15T16:51:04.784Z,0.25
2024-01-15T16:53:33.148Z,0.23
2024-01-15T16:56:01.476Z,0.23
2024-01-15T16:58:29.748Z,-0.01
2024-01-15T17:00:58.365Z,0.19
2024-01-15T17:03:26.636Z,0.21
2024-01-15T17:05:56.328Z,0.16
2024-01-15T17:08:24.935Z,0.03
2024-01-15T17:10:53.195Z,0.01
2024-01-15T17:13:21.586Z,0.01
2024-01-15T17:15:49.828Z,-0.05
2024-01-15T17:18:18.173Z,-0.10
2024-01-15T17:20:47.246Z,-0.01
2024-01-15T17:23:17.515Z,-0.02
2024-01-15T17:25:45.886Z,0.08
2024-01-15T17:28:14.172Z,0.15
2024-01-15T17:30:42.481Z,0.20
2024-01-15T17:33:12.691Z,0.17
2024-01-15T17:35:40.937Z,0.15
2024-01-15T17:38:09.189Z,0.11
2024-01-15T17:40:38.747Z,0.12
2024-01-15T17:43:07.661Z,0.09
2024-01-15T17:45:35.895Z,0.09
2024-01-15T17:48:04.308Z,0.18
2024-01-15T17:50:34.146Z,0.16
2024-01-15T17:53:03.038Z,0.11
2024-01-15T17:55:31.330Z,0.15
2024-01-15T17:58:00.927Z,0.09
2024-01-15T18:00:29.113Z,0.03
2024-01-15T18:02:57.746Z,0.06
2024-01-15T18:05:26.038Z,0.10
2024-01-15T18:07:54.971Z,0.10
2024-01-15T18:10:23.901Z,0.03
2024-01-15T18:12:52.144Z,-0.01
2024-01-15T18:15:21.969Z,0.04
2024-01-15T18:17:50.336Z,0.12
2024-01-15T18:20:18.824Z,0.10
2024-01-15T18:22:50.822Z,0.05
2024-01-15T18:25:20.050Z,0.12
2024-01-15T18:27:48.362Z,0.06
2024-01-15T18:30:17.210Z,0.13
2024-01-15T18:32:49.466Z,0.08
2024-01-15T18:35:17.774Z,0.05
2024-01-15T18:37:47.091Z,0.12
2024-01-15T18:40:15.486Z,-0.06
2024-01-15T18:42:43.717Z,0.03
2024-01-15T18:45:12.384Z,-0.13
2024-01-15T18:47:40.757Z,0.00
2024-01-15T18:50:10.993Z,-0.01
2024-01-15T18:52:39.335Z,-0.07
2024-01-15T18:55:13.783Z,-0.02
2024-01-15T18:57:41.991Z,-0.13
2024-01-15T19:00:12.618Z,-0.11
2024-01-15T19:02:40.945Z,-0.23
2024-01-15T19:05:12.128Z,-0.24
2024-01-15T19:07:40.901Z,-0.27
2024-01-15T19:10:10.103Z,-0.24
2024-01-15T19:12:38.306Z,-0.28
2024-01-15T19:15:07.988Z,-0.23
2024-01-15T19:17:36.300Z,-0.19
2024-01-15T19:20:04.980Z,-0.19
2024-01-15T19:22:34.547Z,0.01
2024-01-15T19:25:02.970Z,0.03
2024-01-15T19:27:31.193Z,0.07
2024-01-15T19:29:59.415Z,-0.08
2024-01-15T19:32:27.735Z,-0.07
2024-01-15T19:34:55.972Z,-0.05
2024-01-15T19:37:26.062Z,-0.09
2024-01-15T19:39:55.634Z,-0.11
2024-01-15T19:42:23.809Z,-0.22
2024-01-15T19:44:52.733Z,-0.18
2024-01-15T19:47:20.997Z,-0.11
2024-01-15T19:49:49.258Z,-0.09
2024-01-15T19:52:17.543Z,-0.19
2024-01-15T19:54:45.728Z,-0.15
2024-01-15T19:57:15.339Z,-0.12
2024-01-15T19:59:43.604Z,-0.10
2024-01-15T20:02:12.010Z,-0.17
2024-01-15T20:04:40.221Z,-0.16
2024-01-15T20:07:08.520Z,-0.12
2024-01-15T20:09:36.722Z,-0.09
2024-01-15T20:12:05.586Z,-0.19
2024-01-15T20:14:36.670Z,-0.18
2024-01-15T20:17:05.996Z,-0.19
2024-01-15T20:19:34.388Z,-0.13
2024-01-15T20:22:04.069Z,-0.08
2024-01-15T20:24:32.902Z,-0.24
2024-01-15T20:27:01.143Z,-0.12
2024-01-15T20:29:29.375Z,-0.15
2024-01-15T20:31:59.100Z,-0.24
2024-01-15T20:34:31.540Z,-0.26
2024-01-15T20:37:04.329Z,-0.24
2024-01-15T20:39:38.947Z,-0.26
2024-01-15T20:42:07.394Z,-0.31
2024-01-15T20:44:35.689Z,-0.34
2024-01-15T20:47:05.652Z,-0.35
2024-01-15T20:49:34.981Z,-0.40
2024-01-15T20:52:04.521Z,-0.35
2024-01-15T20:54:36.926Z,-0.41
2024-01-15T20:57:05.483Z,-0.32
2024-01-15T20:59:39.661Z,-0.42
2024-01-15T21:02:09.277Z,-0.39
2024-01-15T21:04:37.683Z,-0.52
2024-01-15T21:07:08.610Z,-0.46
2024-01-15T21:09:38.025Z,-0.54
2024-01-15T21:12:11.333Z,-0.46
2024-01-15T21:14:40.278Z,-0.57
2024-01-15T21:17:10.002Z,-0.57
2024-01-15T21:19:38.326Z,-0.64
2024-01-15T21:22:10.297Z,-0.49
2024-01-15T21:24:38.547Z,-0.53
2024-01-15T21:27:07.117Z,-0.44
2024-01-15T21:29:35.396Z,-0.31
2024-01-15T21:32:04.150Z,-0.21
2024-01-15T21:34:40.773Z,-0.31
2024-01-15T21:37:09.026Z,-0.30
2024-01-15T21:39:38.209Z,-0.31
2024-01-15T21:42:06.732Z,-0.51
2024-01-15T21:44:35.303Z,-0.56
2024-01-15T21:47:03.602Z,-0.39
2024-01-15T21:49:33.471Z,-0.40
2024-01-15T21:52:05.553Z,-0.46
2024-01-15T21:54:34.910Z,-0.61
2024-01-15T21:57:08.949Z,-0.57
2024-01-15T21:59:37.286Z,-0.71
2024-01-15T22:02:09.784Z,-0.79
2024-01-15T22:04:38.588Z,-0.72
2024-01-15T22:07:08.301Z,-0.57
2024-01-15T22:09:36.537Z,-0.52
2024-01-15T22:12:07.512Z,-0.25
2024-01-15T22:14:36.973Z,-0.47
2024-01-15T22:17:05.555Z,-0.46
2024-01-15T22:19:35.085Z,-0.64
2024-01-15T22:22:05.901Z,-0.68
2024-01-15T22:24:35.506Z,-0.64
2024-01-15T22:27:05.716Z,-0.79
2024-01-15T22:29:35.447Z,-0.55
2024-01-15T22:32:04.063Z,-0.60
2024-01-15T22:34:32.438Z,-0.66
2024-01-15T22:37:01.753Z,-0.73
2024-01-15T22:39:30.111Z,-0.65
2024-01-15T22:42:01.168Z,-0.77
2024-01-15T22:44:30.580Z,-0.68
2024-01-15T22:46:59.121Z,-0.68
2024-01-15T22:49:27.504Z,-0.65
2024-01-15T22:51:56.757Z,-0.57
2024-01-15T22:54:25.112Z,-0.72
2024-01-15T22:56:52.402Z,-0.81
2024-01-15T22:59:23.391Z,-0.81
2024-01-15T23:01:51.898Z,-0.65
2024-01-15T23:04:20.148Z,-0.46
2024-01-15T23:06:48.341Z,-0.59
2024-01-15T23:09:16.782Z,-0.50
2024-01-15T23:11:48.131Z,-0.33
2024-01-15T23:14:16.489Z,-0.36
2024-01-15T23:16:46.033Z,-0.43
2024-01-15T23:19:14.573Z,-0.78
2024-01-15T23:21:42.951Z,-0.69
2024-01-15T23:24:11.182Z,-0.77
2024-01-15T23:26:40.172Z,-0.65
2024-01-15T23:29:08.520Z,-0.30
2024-01-15T23:31:41.241Z,-0.47
2024-01-15T23:34:11.018Z,-0.56
2024-01-15T23:36:44.036Z,-0.41
2024-01-15T23:39:12.275Z,-0.31
2024-01-15T23:41:42.332Z,-0.09
2024-01-15T23:44:11.244Z,-0.20
2024-01-15T23:46:39.520Z,-0.28
2024-01-15T23:49:08.008Z,-0.22
2024-01-15T23:51:39.721Z,-0.33
2024-01-15T23:54:07.993Z,-0.38
2024-01-15T23:56:36.287Z,-0.32
2024-01-15T23:59:04.653Z,-0.31
